Time;durP1;ratioP1;P1;durP2;ratioP2;P2;SDS_P1;SDS_P2;PMS_P1;PMS_P2;Temp;Humidity;BMP_temperature;BMP_pressure;BME280_temperature;BME280_humidity;BME280_pressure;Samples;Min_cycle;Max_cycle;Signal;HPM_P1;HPM_P2
2022/01/29 00:01:01;;;;;;;25.02;20.98;;;;;;;0.01;100.00;99898.72;2106957;28;20182;-70
2022/01/29 00:02:02;;;;;;;32.08;21.58;;;;;;;0.04;100.00;99900.13;2106895;28;20619;-71
2022/01/29 00:03:04;;;;;;;23.67;21.17;;;;;;;0.01;100.00;99893.47;2105633;28;20208;-71
2022/01/29 00:04:05;;;;;;;31.27;21.70;;;;;;;0.05;100.00;99891.22;2099119;28;20298;-71
2022/01/29 00:05:09;;;;;;;23.93;20.67;;;;;;;0.04;100.00;99884.38;2108118;28;20189;-71
2022/01/29 00:06:16;;;;;;;25.92;21.02;;;;;;;0.08;100.00;99890.81;2107484;28;20647;-71
2022/01/29 00:07:18;;;;;;;26.95;21.15;;;;;;;0.08;100.00;99889.00;2108250;28;20204;-71
2022/01/29 00:08:24;;;;;;;27.05;21.40;;;;;;;0.07;100.00;99890.00;2108544;28;20670;-71
2022/01/29 00:09:26;;;;;;;25.98;21.13;;;;;;;0.05;100.00;99899.09;2108607;28;20197;-71
2022/01/29 00:10:33;;;;;;;23.95;21.33;;;;;;;0.05;100.00;99891.22;2108747;28;20192;-71
2022/01/29 00:11:36;;;;;;;28.00;21.70;;;;;;;0.03;100.00;99893.28;2108651;28;20560;-71
2022/01/29 00:12:39;;;;;;;28.40;21.67;;;;;;;0.07;100.00;99895.25;2108643;28;20215;-71
2022/01/29 00:13:40;;;;;;;24.02;21.15;;;;;;;0.05;100.00;99892.03;2108003;28;20193;-71
2022/01/29 00:14:44;;;;;;;26.98;20.88;;;;;;;0.05;100.00;99884.16;2108061;28;20259;-71
2022/01/29 00:15:48;;;;;;;24.00;20.50;;;;;;;0.06;100.00;99892.84;2108517;28;20620;-71
2022/01/29 00:16:50;;;;;;;22.40;20.02;;;;;;;0.04;100.00;99887.00;2108861;28;20189;-71
2022/01/29 00:17:56;;;;;;;24.50;21.13;;;;;;;0.06;100.00;99893.66;2108863;28;20227;-71
2022/01/29 00:18:58;;;;;;;25.17;20.10;;;;;;;0.01;100.00;99883.00;2107770;28;20205;-71
2022/01/29 00:19:59;;;;;;;24.67;20.80;;;;;;;-0.01;100.00;99892.84;2108229;28;20277;-71
2022/01/29 00:21:03;;;;;;;24.65;20.30;;;;;;;0.08;100.00;99894.25;2106982;28;20190;-70
2022/01/29 00:22:06;;;;;;;29.20;21.08;;;;;;;0.07;100.00;99890.00;2108175;28;20185;-71
2022/01/29 00:23:09;;;;;;;25.20;19.98;;;;;;;0.06;100.00;99895.47;2108404;28;20647;-70
2022/01/29 00:24:11;;;;;;;28.27;20.90;;;;;;;0.11;100.00;99900.91;2108593;28;20660;-71
2022/01/29 00:25:15;;;;;;;24.40;20.10;;;;;;;0.10;100.00;99892.25;2108728;28;20190;-71
2022/01/29 00:26:20;;;;;;;24.70;20.70;;;;;;;0.10;100.00;99894.84;2107450;28;20251;-71
2022/01/29 00:27:22;;;;;;;25.17;20.55;;;;;;;0.10;100.00;99904.56;2107535;28;20262;-71
2022/01/29 00:28:26;;;;;;;23.33;20.50;;;;;;;0.09;100.00;99902.91;2099615;28;20610;-71
2022/01/29 00:29:34;;;;;;;23.58;20.80;;;;;;;0.12;100.00;99908.56;2108261;28;20202;-71
2022/01/29 00:30:42;;;;;;;26.83;21.35;;;;;;;0.09;100.00;99902.91;2107768;28;20201;-71
2022/01/29 00:31:45;;;;;;;27.25;19.70;;;;;;;0.06;100.00;99908.59;2107995;28;20666;-71
2022/01/29 00:32:48;;;;;;;26.15;20.33;;;;;;;0.04;100.00;99916.66;2108590;28;20215;-71
2022/01/29 00:33:50;;;;;;;23.52;20.50;;;;;;;0.02;100.00;99912.66;2107871;28;20282;-71
2022/01/29 00:34:59;;;;;;;22.77;20.45;;;;;;;0.02;100.00;99918.69;2107899;28;20236;-71
2022/01/29 00:36:02;;;;;;;22.52;18.80;;;;;;;0.06;100.00;99919.06;2108126;28;20178;-71
2022/01/29 00:37:05;;;;;;;21.20;19.00;;;;;;;0.06;100.00;99917.25;2108455;28;20263;-71
2022/01/29 00:38:11;;;;;;;27.23;19.30;;;;;;;0.01;100.00;99924.16;2107740;28;20561;-71
2022/01/29 00:39:12;;;;;;;22.27;20.08;;;;;;;-0.01;100.00;99919.88;2107823;28;20201;-70
2022/01/29 00:40:16;;;;;;;25.63;19.98;;;;;;;0.03;100.00;99920.31;2099602;28;20263;-70
2022/01/29 00:41:18;;;;;;;22.60;20.30;;;;;;;-0.01;100.00;99914.66;2107875;28;20197;-71
2022/01/29 00:42:24;;;;;;;20.70;18.80;;;;;;;0.02;100.00;99928.38;2107705;28;20197;-71
2022/01/29 00:43:26;;;;;;;25.00;20.42;;;;;;;-0.04;100.00;99922.94;2107687;28;20283;-71
2022/01/29 00:44:30;;;;;;;24.25;19.83;;;;;;;-0.08;100.00;99919.13;2107211;28;20247;-71
2022/01/29 00:45:33;;;;;;;22.35;19.35;;;;;;;-0.11;100.00;99929.19;2107774;28;20648;-71
2022/01/29 00:46:41;;;;;;;21.50;19.05;;;;;;;-0.14;100.00;99924.38;2108591;28;20632;-71
2022/01/29 00:47:42;;;;;;;23.35;19.45;;;;;;;-0.15;100.00;99923.56;2107212;28;20236;-71
2022/01/29 00:48:44;;;;;;;24.30;19.10;;;;;;;-0.18;100.00;99926.59;2107705;28;20667;-70
2022/01/29 00:49:46;;;;;;;22.45;18.88;;;;;;;-0.17;100.00;99933.47;2107906;28;20194;-71
2022/01/29 00:50:51;;;;;;;22.05;19.27;;;;;;;-0.21;100.00;99924.38;2107116;28;20739;-71
2022/01/29 00:51:55;;;;;;;21.30;19.15;;;;;;;-0.25;100.00;99928.44;2107824;28;20217;-71
2022/01/29 00:53:01;;;;;;;22.67;18.98;;;;;;;-0.23;100.00;99925.59;2108550;28;20243;-71
2022/01/29 00:54:04;;;;;;;23.13;19.02;;;;;;;-0.28;100.00;99919.13;2108338;28;20639;-71
2022/01/29 00:55:08;;;;;;;21.88;18.52;;;;;;;-0.30;100.00;99926.41;2107174;28;20246;-71
2022/01/29 00:56:11;;;;;;;22.50;18.38;;;;;;;-0.29;100.00;99920.16;2107910;28;20221;-71
2022/01/29 00:57:16;;;;;;;24.65;19.23;;;;;;;-0.33;100.00;99924.22;2107549;28;20220;-71
2022/01/29 00:58:20;;;;;;;25.60;19.40;;;;;;;-0.36;100.00;99929.03;2107200;28;20209;-71
2022/01/29 00:59:26;;;;;;;22.13;19.25;;;;;;;-0.32;100.00;99925.00;2107646;28;20688;-71
2022/01/29 01:00:27;;;;;;;24.83;19.70;;;;;;;-0.38;100.00;99923.19;2107556;28;20202;-71
2022/01/29 01:01:31;;;;;;;22.13;18.57;;;;;;;-0.43;100.00;99930.88;2107753;28;20233;-70
2022/01/29 01:02:34;;;;;;;20.77;18.42;;;;;;;-0.44;100.00;99924.81;2107032;28;20440;-70
2022/01/29 01:03:36;;;;;;;20.38;18.33;;;;;;;-0.45;100.00;99919.75;2107487;28;20221;-71
2022/01/29 01:04:39;;;;;;;21.30;19.15;;;;;;;-0.43;100.00;99925.63;2107651;28;20543;-70
2022/01/29 01:05:46;;;;;;;20.75;18.50;;;;;;;-0.50;100.00;99924.81;2108170;28;20213;-71
2022/01/29 01:06:47;;;;;;;20.67;18.55;;;;;;;-0.57;100.00;99930.06;2107196;28;20225;-70
2022/01/29 01:07:49;;;;;;;22.57;17.77;;;;;;;-0.58;100.00;99931.06;2107627;28;20276;-70
2022/01/29 01:08:52;;;;;;;19.25;17.38;;;;;;;-0.52;100.00;99917.16;2108158;28;20193;-70
2022/01/29 01:09:54;;;;;;;20.83;18.45;;;;;;;-0.57;100.00;99916.97;2107991;28;20198;-70
2022/01/29 01:10:59;;;;;;;20.00;17.85;;;;;;;-0.62;100.00;99928.03;2099218;28;20233;-70
2022/01/29 01:12:04;;;;;;;20.48;18.27;;;;;;;-0.65;100.00;99925.81;2107817;28;20194;-70
2022/01/29 01:13:07;;;;;;;22.10;18.50;;;;;;;-0.66;100.00;99918.16;2107015;28;20202;-70
2022/01/29 01:14:12;;;;;;;21.05;18.92;;;;;;;-0.66;100.00;99924.22;2107596;28;20197;-71
2022/01/29 01:15:13;;;;;;;19.90;18.00;;;;;;;-0.66;100.00;99923.41;2107574;28;20213;-70
2022/01/29 01:16:15;;;;;;;21.07;18.53;;;;;;;-0.67;100.00;99914.75;2106685;28;20198;-70
2022/01/29 01:17:16;;;;;;;22.02;18.85;;;;;;;-0.66;100.00;99920.78;2107544;28;20194;-70
2022/01/29 01:18:23;;;;;;;20.92;18.60;;;;;;;-0.70;100.00;99903.84;2108226;28;20561;-70
2022/01/29 01:19:26;;;;;;;21.25;19.00;;;;;;;-0.73;100.00;99915.53;2108091;28;20655;-70
2022/01/29 01:20:32;;;;;;;21.83;18.80;;;;;;;-0.77;100.00;99916.16;2108202;28;20209;-70
2022/01/29 01:21:33;;;;;;;19.88;17.90;;;;;;;-0.78;100.00;99917.13;2107870;28;20224;-70
2022/01/29 01:22:38;;;;;;;22.35;18.83;;;;;;;-0.80;100.00;99913.91;2108067;28;20269;-70
2022/01/29 01:23:39;;;;;;;20.55;18.50;;;;;;;-0.84;100.00;99913.53;2108280;28;20189;-70
2022/01/29 01:24:44;;;;;;;21.98;18.35;;;;;;;-0.85;100.00;99906.69;2107034;28;20202;-70
2022/01/29 01:25:52;;;;;;;20.63;18.70;;;;;;;-0.89;100.00;99913.31;2099221;28;20210;-70
2022/01/29 01:26:59;;;;;;;23.33;18.75;;;;;;;-0.94;100.00;99902.63;2107672;28;20239;-70
2022/01/29 01:28:03;;;;;;;21.27;18.92;;;;;;;-0.93;100.00;99912.09;2106941;28;20252;-70
2022/01/29 01:29:04;;;;;;;20.73;18.55;;;;;;;-0.91;100.00;99913.50;2107509;28;20220;-70
2022/01/29 01:30:10;;;;;;;23.17;19.00;;;;;;;-0.97;100.00;99909.06;2107326;28;20204;-70
2022/01/29 01:31:14;;;;;;;22.08;19.73;;;;;;;-0.98;100.00;99906.66;2107059;28;20201;-70
2022/01/29 01:32:16;;;;;;;22.20;19.83;;;;;;;-0.97;100.00;99916.13;2107311;28;20727;-71
2022/01/29 01:33:22;;;;;;;24.27;20.33;;;;;;;-1.00;100.00;99908.66;2099072;28;20205;-70
2022/01/29 01:34:31;;;;;;;24.88;20.45;;;;;;;-1.01;100.00;99907.88;2099190;28;20205;-70
2022/01/29 01:35:39;;;;;;;27.80;19.42;;;;;;;-1.02;100.00;99911.50;2083086;28;20629;-70
2022/01/29 01:36:47;;;;;;;25.90;19.67;;;;;;;-1.06;100.00;99906.84;2090572;28;20280;-71
2022/01/29 01:37:55;;;;;;;23.00;20.00;;;;;;;-1.10;100.00;99909.06;2090689;28;20201;-71
2022/01/29 01:39:03;;;;;;;23.10;19.08;;;;;;;-1.13;100.00;99904.19;2091053;28;20179;-70
2022/01/29 01:40:09;;;;;;;24.52;19.52;;;;;;;-1.16;100.00;99909.84;2090707;28;20197;-70
2022/01/29 01:41:22;;;;;;;22.80;20.13;;;;;;;-1.14;100.00;99907.81;2083604;28;20693;-70
2022/01/29 01:42:26;;;;;;;23.05;19.52;;;;;;;-1.14;100.00;99908.63;2083837;28;20200;-71
2022/01/29 01:43:29;;;;;;;22.90;20.42;;;;;;;-1.14;100.00;99908.63;2090734;28;20197;-70
2022/01/29 01:44:37;;;;;;;22.50;20.25;;;;;;;-1.13;100.00;99898.97;2091314;28;20187;-71
2022/01/29 01:45:41;;;;;;;22.83;20.30;;;;;;;-1.19;100.00;99897.97;2090560;28;20223;-71
2022/01/29 01:46:42;;;;;;;27.88;20.65;;;;;;;-1.20;100.00;99898.97;2090537;28;20294;-71
2022/01/29 01:47:45;;;;;;;21.80;19.70;;;;;;;-1.23;100.00;99896.72;2082890;28;20666;-71
2022/01/29 01:48:50;;;;;;;25.23;20.88;;;;;;;-1.28;100.00;99891.31;2090676;28;20661;-70
2022/01/29 01:49:54;;;;;;;23.90;19.58;;;;;;;-1.30;100.00;99898.56;2091195;28;20672;-70
2022/01/29 01:50:55;;;;;;;25.20;21.27;;;;;;;-1.34;100.00;99892.09;2090013;28;20286;-71
2022/01/29 01:52:00;;;;;;;25.15;20.58;;;;;;;-1.33;100.00;99890.28;2082321;28;20279;-70
2022/01/29 01:53:04;;;;;;;30.80;21.92;;;;;;;-1.32;100.00;99899.75;2082373;28;20210;-70
2022/01/29 01:54:06;;;;;;;26.00;21.02;;;;;;;-1.33;100.00;99891.06;2090615;28;20266;-70
2022/01/29 01:55:08;;;;;;;23.45;20.52;;;;;;;-1.38;100.00;99893.50;2090799;28;20203;-70
2022/01/29 01:56:10;;;;;;;23.42;21.08;;;;;;;-1.38;100.00;99890.88;2082363;28;20242;-71
2022/01/29 01:57:13;;;;;;;30.92;20.65;;;;;;;-1.43;100.00;99894.06;2082020;28;20686;-70
2022/01/29 01:58:14;;;;;;;27.30;21.90;;;;;;;-1.46;100.00;99891.06;2082363;28;20196;-70
2022/01/29 01:59:18;;;;;;;24.48;20.80;;;;;;;-1.44;100.00;99896.91;2082516;28;20204;-70
2022/01/29 02:00:22;;;;;;;21.90;19.73;;;;;;;-1.46;100.00;99894.47;2090320;28;20202;-70
2022/01/29 02:01:26;;;;;;;24.85;20.88;;;;;;;-1.47;100.00;99882.41;2090652;28;20214;-70
2022/01/29 02:02:27;;;;;;;23.17;20.48;;;;;;;-1.47;100.00;99884.22;2090711;28;20305;-70
2022/01/29 02:03:31;;;;;;;25.45;19.95;;;;;;;-1.48;100.00;99893.03;2090570;28;20249;-70
2022/01/29 02:04:38;;;;;;;21.55;19.45;;;;;;;-1.51;100.00;99888.22;2091113;28;20281;-70
2022/01/29 02:05:40;;;;;;;26.17;20.80;;;;;;;-1.52;100.00;99884.00;2090860;28;20194;-70
2022/01/29 02:06:44;;;;;;;22.58;20.17;;;;;;;-1.56;100.00;99888.00;2081916;28;20223;-70
2022/01/29 02:07:50;;;;;;;23.63;21.10;;;;;;;-1.60;100.00;99887.59;2090469;28;20680;-70
2022/01/29 02:08:58;;;;;;;24.27;20.77;;;;;;;-1.57;100.00;99887.19;2091325;28;20203;-70
2022/01/29 02:10:02;;;;;;;25.23;20.75;;;;;;;-1.57;100.00;99889.78;2091351;28;20253;-70
2022/01/29 02:11:06;;;;;;;22.20;19.90;;;;;;;-1.56;100.00;99888.00;2091159;28;20260;-70
2022/01/29 02:12:10;;;;;;;22.80;20.50;;;;;;;-1.56;100.00;99888.00;2090690;28;20195;-70
2022/01/29 02:13:12;;;;;;;24.23;20.15;;;;;;;-1.55;100.00;99889.63;2090495;28;20654;-70
2022/01/29 02:14:16;;;;;;;25.73;19.23;;;;;;;-1.56;100.00;99885.41;2091034;28;20199;-69
2022/01/29 02:15:20;;;;;;;20.67;18.52;;;;;;;-1.57;100.00;99889.00;2090524;28;20206;-70
2022/01/29 02:16:23;;;;;;;23.67;19.50;;;;;;;-1.58;100.00;99887.38;2082351;28;20643;-70
2022/01/29 02:17:27;;;;;;;21.08;18.83;;;;;;;-1.57;100.00;99883.75;2090592;28;20221;-70
2022/01/29 02:18:29;;;;;;;24.63;19.98;;;;;;;-1.56;100.00;99882.78;2090650;28;20297;-70
2022/01/29 02:19:32;;;;;;;25.98;19.25;;;;;;;-1.58;100.00;99880.34;2090410;28;20665;-70
2022/01/29 02:20:34;;;;;;;22.70;20.25;;;;;;;-1.55;100.00;99887.00;2091048;28;20645;-70
2022/01/29 02:21:41;;;;;;;26.50;19.83;;;;;;;-1.54;100.00;99904.31;2089907;28;20283;-70
2022/01/29 02:22:44;;;;;;;25.33;19.15;;;;;;;-1.56;100.00;99882.78;2090433;28;20183;-70
2022/01/29 02:23:46;;;;;;;21.45;19.52;;;;;;;-1.55;100.00;99887.00;2090943;28;20193;-70
2022/01/29 02:24:48;;;;;;;22.52;19.23;;;;;;;-1.58;100.00;99879.53;2090527;28;20206;-69
2022/01/29 02:25:54;;;;;;;22.42;18.60;;;;;;;-1.55;100.00;99890.44;2090264;28;20198;-70
2022/01/29 02:26:55;;;;;;;20.70;18.73;;;;;;;-1.53;100.00;99898.88;2090921;28;20215;-69
2022/01/29 02:28:01;;;;;;;26.33;19.33;;;;;;;-1.53;100.00;99892.84;2090944;28;20210;-69
2022/01/29 02:29:05;;;;;;;21.50;18.98;;;;;;;-1.55;100.00;99879.97;2090499;28;20626;-69
2022/01/29 02:30:09;;;;;;;21.58;18.73;;;;;;;-1.45;100.00;99890.06;2090269;28;20264;-70
2022/01/29 02:31:13;;;;;;;21.40;19.13;;;;;;;-1.46;100.00;99884.00;2091109;28;20538;-70
2022/01/29 02:32:17;;;;;;;21.13;18.83;;;;;;;-1.48;100.00;99906.13;2091020;28;20344;-69
2022/01/29 02:33:22;;;;;;;22.00;18.48;;;;;;;-1.51;100.00;99894.25;2090567;28;20290;-70
2022/01/29 02:34:24;;;;;;;20.70;18.67;;;;;;;-1.48;100.00;99895.66;2090586;28;20179;-69
2022/01/29 02:35:29;;;;;;;22.13;19.17;;;;;;;-1.52;100.00;99900.50;2106526;28;20696;-70
2022/01/29 02:36:31;;;;;;;21.42;18.42;;;;;;;-1.49;100.00;99899.28;2107081;28;20229;-70
2022/01/29 02:37:36;;;;;;;20.65;18.45;;;;;;;-1.46;100.00;99898.91;2107313;28;20577;-69
2022/01/29 02:38:37;;;;;;;21.27;19.17;;;;;;;-1.53;100.00;99898.06;2106840;28;20251;-70
2022/01/29 02:39:41;;;;;;;21.30;19.20;;;;;;;-1.49;100.00;99904.53;2098440;28;20840;-69
2022/01/29 02:40:48;;;;;;;23.92;19.05;;;;;;;-1.45;100.00;99900.53;2106776;28;20432;-70
2022/01/29 02:41:52;;;;;;;21.65;19.58;;;;;;;-1.48;100.00;99891.25;2107717;28;20178;-70
2022/01/29 02:42:55;;;;;;;21.23;18.98;;;;;;;-1.46;100.00;99898.91;2107408;28;20251;-69
2022/01/29 02:44:04;;;;;;;22.58;19.70;;;;;;;-1.48;100.00;99893.88;2107448;28;20186;-70
2022/01/29 02:45:06;;;;;;;22.73;19.15;;;;;;;-1.44;100.00;99896.91;2106665;28;20197;-69
2022/01/29 02:46:20;;;;;;;21.90;19.27;;;;;;;-1.43;100.00;99895.88;2098570;28;20198;-70
2022/01/29 02:47:30;;;;;;;21.20;19.02;;;;;;;-1.45;100.00;99892.66;2106971;28;20201;-70
2022/01/29 02:48:32;;;;;;;24.08;18.65;;;;;;;-1.50;100.00;99901.09;2106721;28;20578;-70
2022/01/29 02:49:38;;;;;;;21.90;19.52;;;;;;;-1.55;100.00;99900.09;2106843;28;20195;-70
2022/01/29 02:50:43;;;;;;;25.40;19.08;;;;;;;-1.57;100.00;99899.47;2107451;28;20637;-70
2022/01/29 02:51:46;;;;;;;21.67;19.02;;;;;;;-1.56;100.00;99903.72;2107167;28;20226;-69
2022/01/29 02:52:52;;;;;;;23.83;19.55;;;;;;;-1.58;100.00;99900.47;2106346;28;20201;-69
2022/01/29 02:54:01;;;;;;;23.35;19.20;;;;;;;-1.61;100.00;99887.78;2106872;28;20228;-70
2022/01/29 02:55:03;;;;;;;22.40;19.83;;;;;;;-1.62;100.00;99905.28;2106269;28;20285;-69
2022/01/29 02:56:07;;;;;;;21.45;19.15;;;;;;;-1.61;100.00;99906.91;2106784;28;20192;-70
2022/01/29 02:57:11;;;;;;;22.90;18.58;;;;;;;-1.63;100.00;99897.66;2107241;28;20316;-69
2022/01/29 02:58:17;;;;;;;19.88;17.77;;;;;;;-1.60;100.00;99907.72;2107525;28;20193;-69
2022/01/29 02:59:18;;;;;;;21.02;18.75;;;;;;;-1.62;100.00;99909.72;2106251;28;20205;-69
2022/01/29 03:00:20;;;;;;;21.85;18.85;;;;;;;-1.64;100.00;99915.16;2106755;28;20228;-70
2022/01/29 03:01:23;;;;;;;22.75;19.33;;;;;;;-1.65;100.00;99915.31;2106521;28;20679;-70
2022/01/29 03:02:25;;;;;;;21.05;18.92;;;;;;;-1.67;100.00;99901.63;2106763;28;20178;-70
2022/01/29 03:03:28;;;;;;;26.85;20.20;;;;;;;-1.63;100.00;99911.53;2107126;28;20217;-69
2022/01/29 03:04:33;;;;;;;21.45;19.27;;;;;;;-1.66;100.00;99905.88;2106545;28;20205;-69
2022/01/29 03:05:38;;;;;;;23.33;19.38;;;;;;;-1.65;100.00;99904.84;2098439;28;20237;-69
2022/01/29 03:06:40;;;;;;;21.33;19.13;;;;;;;-1.68;100.00;99911.28;2106187;28;20225;-70
2022/01/29 03:07:43;;;;;;;22.30;18.98;;;;;;;-1.67;100.00;99897.22;2106173;28;20216;-70
2022/01/29 03:08:49;;;;;;;21.92;18.48;;;;;;;-1.61;100.00;99895.63;2106692;28;20666;-69
2022/01/29 03:09:53;;;;;;;21.90;19.20;;;;;;;-1.65;100.00;99894.41;2106525;28;20212;-69
2022/01/29 03:10:55;;;;;;;22.52;18.02;;;;;;;-1.69;100.00;99893.19;2106940;28;20178;-69
2022/01/29 03:12:00;;;;;;;23.60;19.70;;;;;;;-1.75;100.00;99876.47;2106607;28;20201;-70
2022/01/29 03:13:02;;;;;;;22.70;19.83;;;;;;;-1.72;100.00;99892.59;2098142;28;20816;-70
2022/01/29 03:14:05;;;;;;;22.98;19.27;;;;;;;-1.76;100.00;99893.16;2106683;28;20197;-69
2022/01/29 03:15:06;;;;;;;22.27;19.52;;;;;;;-1.74;100.00;99886.75;2107208;28;20200;-69
2022/01/29 03:16:11;;;;;;;22.02;19.08;;;;;;;-1.68;100.00;99892.19;2107228;28;20190;-69
2022/01/29 03:17:12;;;;;;;22.38;19.15;;;;;;;-1.68;100.00;99892.19;2106651;28;20244;-69
2022/01/29 03:18:15;;;;;;;22.30;20.00;;;;;;;-1.79;100.00;99883.91;2106488;28;20212;-70
2022/01/29 03:19:18;;;;;;;29.20;19.35;;;;;;;-1.78;100.00;99893.34;2106098;28;20258;-69
2022/01/29 03:20:22;;;;;;;23.00;20.13;;;;;;;-1.82;100.00;99901.81;2106620;28;20189;-70
2022/01/29 03:21:27;;;;;;;21.08;18.88;;;;;;;-1.85;100.00;99900.34;2105996;28;20229;-69
2022/01/29 03:22:28;;;;;;;22.92;19.33;;;;;;;-1.87;100.00;99888.50;2098591;28;20292;-70
2022/01/29 03:23:30;;;;;;;27.47;20.67;;;;;;;-1.88;100.00;99890.28;2106673;28;20272;-70
2022/01/29 03:24:32;;;;;;;20.60;18.48;;;;;;;-1.88;100.00;99887.69;2107160;28;20928;-69
2022/01/29 03:25:36;;;;;;;23.30;19.98;;;;;;;-1.89;100.00;99891.31;2107172;28;20185;-70
2022/01/29 03:26:41;;;;;;;22.15;19.40;;;;;;;-1.91;100.00;99884.63;2106428;28;20193;-69
2022/01/29 03:27:46;;;;;;;20.88;18.73;;;;;;;-1.93;100.00;99881.41;2098337;28;20198;-69
2022/01/29 03:28:47;;;;;;;25.67;20.15;;;;;;;-1.93;100.00;99879.59;2098055;28;20498;-69
2022/01/29 03:29:50;;;;;;;21.35;19.23;;;;;;;-1.95;100.00;99879.00;2098248;28;20337;-69
2022/01/29 03:30:55;;;;;;;26.90;19.10;;;;;;;-1.97;100.00;99880.19;2106463;28;20578;-70
2022/01/29 03:31:59;;;;;;;23.13;18.77;;;;;;;-2.03;100.00;99879.97;2107093;28;20213;-69
2022/01/29 03:33:00;;;;;;;23.70;20.90;;;;;;;-2.02;100.00;99883.38;2107097;28;20217;-69
2022/01/29 03:34:08;;;;;;;23.13;19.90;;;;;;;-2.01;100.00;99890.22;2106453;28;20668;-70
2022/01/29 03:35:16;;;;;;;24.40;20.35;;;;;;;-2.03;100.00;99874.72;2097906;28;20237;-69
2022/01/29 03:36:19;;;;;;;24.52;20.17;;;;;;;-2.01;100.00;99877.94;2106113;28;20293;-69
2022/01/29 03:37:22;;;;;;;24.88;19.95;;;;;;;-2.02;100.00;99878.16;2105821;28;20587;-69
2022/01/29 03:38:24;;;;;;;25.88;20.60;;;;;;;-2.01;100.00;99877.16;2106046;28;20282;-69
2022/01/29 03:39:27;;;;;;;20.80;18.80;;;;;;;-2.01;100.00;99885.00;2107184;28;20224;-70
2022/01/29 03:40:33;;;;;;;22.00;19.80;;;;;;;-2.02;100.00;99878.97;2107246;28;20189;-69
2022/01/29 03:41:38;;;;;;;21.70;19.38;;;;;;;-2.04;100.00;99880.16;2106312;28;20736;-70
2022/01/29 03:42:47;;;;;;;21.80;19.48;;;;;;;-2.02;100.00;99886.81;2106610;28;20190;-69
2022/01/29 03:43:51;;;;;;;22.08;19.73;;;;;;;-2.03;100.00;99876.53;2107274;28;20181;-69
2022/01/29 03:44:54;;;;;;;23.00;19.75;;;;;;;-2.05;100.00;99878.56;2107060;28;20207;-69
2022/01/29 03:45:56;;;;;;;23.08;19.98;;;;;;;-2.03;100.00;99882.56;2107267;28;20280;-69
2022/01/29 03:47:01;;;;;;;22.25;19.85;;;;;;;-2.09;100.00;99875.50;2107296;28;20219;-70
2022/01/29 03:48:06;;;;;;;21.70;19.35;;;;;;;-2.03;100.00;99882.56;2107230;28;20189;-69
2022/01/29 03:49:12;;;;;;;22.75;19.48;;;;;;;-2.04;100.00;99878.34;2106993;28;20198;-70
2022/01/29 03:50:15;;;;;;;21.25;19.10;;;;;;;-2.06;100.00;99871.72;2107275;28;20632;-69
2022/01/29 03:51:18;;;;;;;22.10;19.35;;;;;;;-2.10;100.00;99871.28;2105811;28;20241;-69
2022/01/29 03:52:20;;;;;;;24.05;19.15;;;;;;;-2.09;100.00;99882.53;2098139;28;20198;-70
2022/01/29 03:53:22;;;;;;;24.67;20.80;;;;;;;-2.04;100.00;99880.16;2105993;28;20560;-69
2022/01/29 03:54:24;;;;;;;22.73;20.30;;;;;;;-1.99;100.00;99875.16;2098257;28;20206;-70
2022/01/29 03:55:27;;;;;;;26.38;20.73;;;;;;;-2.04;100.00;99865.28;2097922;28;20194;-69
2022/01/29 03:56:32;;;;;;;23.75;20.75;;;;;;;-2.04;100.00;99885.38;2106400;28;20300;-69
2022/01/29 03:57:37;;;;;;;22.98;19.42;;;;;;;-2.04;100.00;99873.13;2106900;28;20209;-70
2022/01/29 03:58:38;;;;;;;22.70;20.27;;;;;;;-2.06;100.00;99861.25;2106899;28;20190;-69
2022/01/29 03:59:45;;;;;;;22.90;20.27;;;;;;;-2.06;100.00;99876.94;2106227;28;20375;-70
2022/01/29 04:00:50;;;;;;;22.65;20.33;;;;;;;-2.09;100.00;99872.06;2106483;28;20265;-69
2022/01/29 04:01:56;;;;;;;23.73;21.23;;;;;;;-2.09;100.00;99878.13;2106913;28;20205;-69
2022/01/29 04:02:59;;;;;;;26.23;21.02;;;;;;;-2.11;100.00;99867.03;2107115;28;20281;-70
2022/01/29 04:04:03;;;;;;;25.30;21.38;;;;;;;-2.10;100.00;99868.66;2106085;28;20197;-69
2022/01/29 04:05:07;;;;;;;22.95;20.48;;;;;;;-2.13;100.00;99870.88;2097975;28;20206;-69
2022/01/29 04:06:10;;;;;;;26.25;20.92;;;;;;;-2.16;100.00;99866.84;2097886;28;20191;-69
2022/01/29 04:07:13;;;;;;;23.60;21.10;;;;;;;-2.19;100.00;99866.41;2098208;28;20209;-69
2022/01/29 04:08:17;;;;;;;22.85;20.05;;;;;;;-2.21;100.00;99863.97;2097580;28;20198;-69
2022/01/29 04:09:22;;;;;;;24.27;21.25;;;;;;;-2.23;100.00;99859.97;2106390;28;20244;-69
2022/01/29 04:10:28;;;;;;;29.00;19.95;;;;;;;-2.29;100.00;99854.50;2105820;28;20536;-69
2022/01/29 04:11:38;;;;;;;24.27;21.50;;;;;;;-2.30;100.00;99859.91;2098865;28;20198;-70
2022/01/29 04:12:45;;;;;;;24.63;20.40;;;;;;;-2.29;100.00;99853.69;2106676;28;20261;-70
2022/01/29 04:13:48;;;;;;;28.58;21.75;;;;;;;-2.24;100.00;99859.16;2106963;28;20177;-69
2022/01/29 04:14:53;;;;;;;26.67;21.63;;;;;;;-2.24;100.00;99858.34;2107060;28;20225;-69
2022/01/29 04:15:57;;;;;;;25.35;22.60;;;;;;;-2.30;100.00;99850.25;2106948;28;20190;-70
2022/01/29 04:17:01;;;;;;;25.67;21.00;;;;;;;-2.33;100.00;99855.88;2107076;28;20272;-70
2022/01/29 04:18:03;;;;;;;27.15;21.70;;;;;;;-2.32;100.00;99857.50;2106815;28;20202;-69
2022/01/29 04:19:06;;;;;;;26.15;21.63;;;;;;;-2.35;100.00;99854.44;2106911;28;20193;-69
2022/01/29 04:20:09;;;;;;;27.45;20.58;;;;;;;-2.40;100.00;99859.47;2106832;28;20213;-70
2022/01/29 04:21:12;;;;;;;24.50;21.27;;;;;;;-2.41;100.00;99850.81;2105283;28;20687;-69
2022/01/29 04:22:12;;;;;;;27.58;21.60;;;;;;;-2.41;100.00;99858.66;2106601;28;20170;-69
2022/01/29 04:23:20;;;;;;;27.63;20.97;;;;;;;-2.42;100.00;99862.28;2106020;28;20644;-69
2022/01/29 04:24:21;;;;;;;25.80;22.00;;;;;;;-2.44;100.00;99859.00;2098264;28;20205;-70
2022/01/29 04:25:24;;;;;;;22.85;20.45;;;;;;;-2.47;100.00;99862.03;2097793;28;20194;-70
2022/01/29 04:26:26;;;;;;;24.05;20.42;;;;;;;-2.45;100.00;99859.22;2106251;28;20671;-69
2022/01/29 04:27:36;;;;;;;23.50;20.27;;;;;;;-2.45;100.00;99865.25;2106505;28;20541;-70
2022/01/29 04:28:42;;;;;;;25.15;20.92;;;;;;;-2.49;100.00;99866.63;2107155;28;20232;-69
2022/01/29 04:29:54;;;;;;;32.75;21.58;;;;;;;-2.49;100.00;99864.03;2105722;28;20254;-70
2022/01/29 04:31:06;;;;;;;23.63;21.17;;;;;;;-2.46;100.00;99862.81;2106184;28;20198;-69
2022/01/29 04:32:14;;;;;;;28.00;21.85;;;;;;;-2.47;100.00;99858.59;2106648;28;20612;-69
2022/01/29 04:33:28;;;;;;;23.67;20.70;;;;;;;-2.46;100.00;99865.44;2107135;28;20177;-69
2022/01/29 04:34:32;;;;;;;25.95;22.00;;;;;;;-2.49;100.00;99860.59;2105782;28;20209;-70
2022/01/29 04:35:34;;;;;;;23.90;20.40;;;;;;;-2.52;100.00;99856.56;2106269;28;20197;-70
2022/01/29 04:36:38;;;;;;;26.35;21.85;;;;;;;-2.57;100.00;99859.75;2106490;28;20603;-69
2022/01/29 04:37:41;;;;;;;25.38;21.25;;;;;;;-2.52;100.00;99867.00;2106739;28;20213;-69
2022/01/29 04:38:47;;;;;;;22.30;19.88;;;;;;;-2.51;100.00;99867.84;2106690;28;20286;-69
2022/01/29 04:39:53;;;;;;;24.05;21.42;;;;;;;-2.48;100.00;99870.84;2105746;28;20217;-70
2022/01/29 04:41:03;;;;;;;22.63;20.30;;;;;;;-2.49;100.00;99873.66;2106170;28;20243;-69
2022/01/29 04:42:07;;;;;;;25.27;21.38;;;;;;;-2.48;100.00;99862.22;2105667;28;20198;-69
2022/01/29 04:43:11;;;;;;;30.42;21.05;;;;;;;-2.50;100.00;99867.63;2106223;28;20189;-69
2022/01/29 04:44:15;;;;;;;23.88;19.90;;;;;;;-2.52;100.00;99863.59;2106903;28;20695;-69
2022/01/29 04:45:19;;;;;;;26.90;21.30;;;;;;;-2.52;100.00;99855.75;2105996;28;20224;-69
2022/01/29 04:46:25;;;;;;;23.63;20.23;;;;;;;-2.52;100.00;99863.59;2106123;28;20272;-69
2022/01/29 04:47:28;;;;;;;28.45;21.45;;;;;;;-2.54;100.00;99868.19;2105531;28;20775;-69
2022/01/29 04:48:32;;;;;;;33.80;21.42;;;;;;;-2.56;100.00;99868.41;2106168;28;20603;-70
2022/01/29 04:49:33;;;;;;;26.05;21.20;;;;;;;-2.56;100.00;99873.63;2105775;28;20251;-69
2022/01/29 04:50:35;;;;;;;26.30;21.53;;;;;;;-2.60;100.00;99864.56;2107770;28;20185;-69
2022/01/29 04:51:40;;;;;;;27.77;21.25;;;;;;;-2.58;100.00;99862.56;2107322;28;20270;-70